TimeGMT,TemperatureF,Dew PointF,Humidity,Sea Level PressureIn,VisibilityMPH,Wind Direction,Wind SpeedMPH,Gust SpeedMPH,PrecipitationIn,Events,Conditions,WindDirDegrees,DateUTC
12:20 AM,46.4,41.0,81,28.68,6.2,WSW,18.4,-,N/A,Rain,Light Rain,240,2012-11-02 00:20:00
12:50 AM,46.4,41.0,81,28.68,6.2,WSW,16.1,-,N/A,Rain,Light Rain,240,2012-11-02 00:50:00
1:20 AM,46.4,41.0,81,28.71,6.2,WSW,11.5,-,N/A,,Mostly Cloudy,240,2012-11-02 01:20:00
1:50 AM,46.4,41.0,81,28.71,6.2,WSW,10.4,-,N/A,,Mostly Cloudy,240,2012-11-02 01:50:00
2:20 AM,46.4,41.0,81,28.74,3.1,WSW,12.7,-,N/A,Rain,Light Rain,240,2012-11-02 02:20:00
2:50 AM,44.6,37.4,76,28.74,6.2,WSW,15.0,-,N/A,,Mostly Cloudy,240,2012-11-02 02:50:00
3:20 AM,44.6,39.2,81,28.74,6.2,SSW,10.4,-,N/A,,Mostly Cloudy,200,2012-11-02 03:20:00
3:50 AM,44.6,41.0,87,28.74,6.2,SW,11.5,-,N/A,Rain,Light Rain,230,2012-11-02 03:50:00
4:20 AM,42.8,39.2,87,28.77,6.2,SW,11.5,-,N/A,,Partly Cloudy,230,2012-11-02 04:20:00
4:50 AM,42.8,39.2,87,28.77,6.2,SW,15.0,-,N/A,,Scattered Clouds,220,2012-11-02 04:50:00
5:20 AM,42.8,39.2,87,28.77,6.2,SW,18.4,-,N/A,,Partly Cloudy,220,2012-11-02 05:20:00
5:50 AM,42.8,37.4,81,28.74,6.2,SW,21.9,-,N/A,,Partly Cloudy,220,2012-11-02 05:50:00
6:20 AM,44.6,37.4,76,28.77,6.2,SW,20.7,32.2,N/A,,Scattered Clouds,220,2012-11-02 06:20:00
6:50 AM,44.6,37.4,76,28.74,6.2,SW,21.9,-,N/A,Rain,Light Rain,220,2012-11-02 06:50:00
7:20 AM,44.6,39.2,81,28.77,6.2,SW,20.7,32.2,N/A,Rain,Light Rain,230,2012-11-02 07:20:00
7:50 AM,42.8,39.2,87,28.77,6.2,SW,19.6,-,N/A,Rain,Light Rain,230,2012-11-02 07:50:00
8:20 AM,44.6,39.2,81,28.77,6.2,SW,20.7,-,N/A,Rain,Light Rain,230,2012-11-02 08:20:00
8:50 AM,44.6,39.2,81,28.77,6.2,SW,19.6,-,N/A,,Mostly Cloudy,230,2012-11-02 08:50:00
9:20 AM,44.6,39.2,81,28.77,6.2,SW,17.3,-,N/A,,Mostly Cloudy,220,2012-11-02 09:20:00
9:50 AM,44.6,39.2,81,28.80,6.2,WSW,16.1,-,N/A,Rain,Light Rain,240,2012-11-02 09:50:00
10:20 AM,42.8,41.0,93,28.80,6.2,WSW,8.1,-,N/A,Rain,Light Rain Showers,250,2012-11-02 10:20:00
10:50 AM,42.8,39.2,87,28.82,6.2,NW,5.8,-,N/A,Rain,Light Rain Showers,310,2012-11-02 10:50:00
11:20 AM,42.8,41.0,93,28.82,6.2,WNW,6.9,-,N/A,Rain,Light Rain Showers,300,2012-11-02 11:20:00
11:50 AM,44.6,41.0,87,28.85,6.2,WNW,10.4,-,N/A,,Scattered Clouds,300,2012-11-02 11:50:00
12:20 PM,46.4,39.2,76,28.88,6.2,West,11.5,-,N/A,,Mostly Cloudy,280,2012-11-02 12:20:00
12:50 PM,46.4,37.4,71,28.91,6.2,WNW,16.1,-,N/A,,Partly Cloudy,300,2012-11-02 12:50:00
1:20 PM,46.4,37.4,71,28.91,6.2,WNW,10.4,-,N/A,,Partly Cloudy,290,2012-11-02 13:20:00
1:50 PM,46.4,37.4,71,28.94,6.2,West,6.9,-,N/A,,Scattered Clouds,280,2012-11-02 13:50:00
2:20 PM,46.4,37.4,71,28.94,6.2,West,9.2,-,N/A,,Scattered Clouds,280,2012-11-02 14:20:00
2:50 PM,46.4,37.4,71,28.97,6.2,WNW,11.5,-,N/A,Rain,Light Rain,300,2012-11-02 14:50:00
3:20 PM,44.6,37.4,76,29.00,6.2,WNW,6.9,-,N/A,,Mostly Cloudy,300,2012-11-02 15:20:00
3:50 PM,44.6,37.4,76,29.03,6.2,West,6.9,-,N/A,Rain,Light Rain,280,2012-11-02 15:50:00
4:20 PM,41.0,37.4,87,29.03,6.2,West,5.8,-,N/A,,Partly Cloudy,260,2012-11-02 16:20:00
4:50 PM,39.2,35.6,87,29.06,6.2,West,5.8,-,N/A,,Partly Cloudy,270,2012-11-02 16:50:00
5:20 PM,37.4,33.8,87,29.06,6.2,West,4.6,-,N/A,,Partly Cloudy,270,2012-11-02 17:20:00
5:50 PM,37.4,33.8,87,29.09,6.2,West,3.5,-,N/A,,Partly Cloudy,270,2012-11-02 17:50:00
6:20 PM,37.4,33.8,87,29.09,6.2,West,4.6,-,N/A,,Partly Cloudy,280,2012-11-02 18:20:00
6:50 PM,37.4,33.8,87,29.09,6.2,West,8.1,-,N/A,,Partly Cloudy,270,2012-11-02 18:50:00
7:20 PM,37.4,33.8,87,29.12,-9999.0,Calm,Calm,-,N/A,,Clear,0,2012-11-02 19:20:00
7:50 PM,35.6,32.0,87,29.12,6.2,Calm,Calm,-,N/A,,Partly Cloudy,0,2012-11-02 19:50:00
8:20 PM,35.6,33.8,93,29.15,6.2,Variable,2.3,-,N/A,,Scattered Clouds,0,2012-11-02 20:20:00
8:50 PM,37.4,33.8,87,29.15,6.2,Calm,Calm,-,N/A,,Scattered Clouds,0,2012-11-02 20:50:00
9:20 PM,35.6,32.0,87,29.15,6.2,Variable,2.3,-,N/A,,Partly Cloudy,0,2012-11-02 21:20:00
9:50 PM,35.6,32.0,87,29.15,6.2,Calm,Calm,-,N/A,,Partly Cloudy,0,2012-11-02 21:50:00
10:20 PM,33.8,32.0,93,29.18,6.2,Calm,Calm,-,N/A,,Partly Cloudy,0,2012-11-02 22:20:00
10:50 PM,33.8,32.0,93,29.18,6.2,Variable,2.3,-,N/A,,Partly Cloudy,0,2012-11-02 22:50:00
11:20 PM,32.0,30.2,93,29.18,6.2,NNE,2.3,-,N/A,,Partly Cloudy,20,2012-11-02 23:20:00
11:50 PM,32.0,32.0,100,29.18,5.6,NE,3.5,-,N/A,,Unknown,50,2012-11-02 23:50:00